sensor_id;sensor_type;location;lat;lon;timestamp;P1;durP1;ratioP1;P2;durP2;ratioP2
83659;SDS011;73632;50.808;3.422;2024-02-21T00:01:34;25.52;;;7.07;;
83659;SDS011;73632;50.808;3.422;2024-02-21T00:03:59;27.33;;;7.88;;
83659;SDS011;73632;50.808;3.422;2024-02-21T00:06:25;21.98;;;8.00;;
83659;SDS011;73632;50.808;3.422;2024-02-21T00:08:51;32.40;;;7.35;;
83659;SDS011;73632;50.808;3.422;2024-02-21T00:11:16;27.95;;;7.22;;
83659;SDS011;73632;50.808;3.422;2024-02-21T00:13:41;23.80;;;7.60;;
83659;SDS011;73632;50.808;3.422;2024-02-21T00:16:07;33.80;;;7.82;;
83659;SDS011;73632;50.808;3.422;2024-02-21T00:18:32;32.85;;;7.40;;
83659;SDS011;73632;50.808;3.422;2024-02-21T00:20:58;24.67;;;7.65;;
83659;SDS011;73632;50.808;3.422;2024-02-21T00:23:24;29.23;;;8.00;;
83659;SDS011;73632;50.808;3.422;2024-02-21T00:25:49;23.90;;;7.40;;
83659;SDS011;73632;50.808;3.422;2024-02-21T00:28:14;22.35;;;7.03;;
83659;SDS011;73632;50.808;3.422;2024-02-21T00:30:40;27.85;;;7.70;;
83659;SDS011;73632;50.808;3.422;2024-02-21T00:33:05;23.30;;;6.88;;
83659;SDS011;73632;50.808;3.422;2024-02-21T00:35:31;20.15;;;6.63;;
83659;SDS011;73632;50.808;3.422;2024-02-21T00:37:56;29.42;;;8.35;;
83659;SDS011;73632;50.808;3.422;2024-02-21T00:40:22;34.88;;;8.02;;
83659;SDS011;73632;50.808;3.422;2024-02-21T00:42:48;28.92;;;6.95;;
83659;SDS011;73632;50.808;3.422;2024-02-21T00:45:13;28.92;;;7.22;;
83659;SDS011;73632;50.808;3.422;2024-02-21T00:47:39;24.02;;;7.18;;
83659;SDS011;73632;50.808;3.422;2024-02-21T00:50:05;36.53;;;8.30;;
83659;SDS011;73632;50.808;3.422;2024-02-21T00:52:32;27.05;;;7.43;;
83659;SDS011;73632;50.808;3.422;2024-02-21T00:54:58;27.80;;;6.78;;
83659;SDS011;73632;50.808;3.422;2024-02-21T00:57:23;28.15;;;7.35;;
83659;SDS011;73632;50.808;3.422;2024-02-21T00:59:49;26.02;;;6.93;;
83659;SDS011;73632;50.808;3.422;2024-02-21T01:02:14;31.92;;;6.97;;
83659;SDS011;73632;50.808;3.422;2024-02-21T01:04:39;34.58;;;6.88;;
83659;SDS011;73632;50.808;3.422;2024-02-21T01:07:05;24.92;;;6.65;;
83659;SDS011;73632;50.808;3.422;2024-02-21T01:09:30;37.20;;;7.85;;
83659;SDS011;73632;50.808;3.422;2024-02-21T01:11:56;29.88;;;6.55;;
83659;SDS011;73632;50.808;3.422;2024-02-21T01:14:21;25.75;;;6.32;;
83659;SDS011;73632;50.808;3.422;2024-02-21T01:16:47;35.05;;;5.93;;
83659;SDS011;73632;50.808;3.422;2024-02-21T01:19:12;33.10;;;6.93;;
83659;SDS011;73632;50.808;3.422;2024-02-21T01:21:37;33.10;;;7.60;;
83659;SDS011;73632;50.808;3.422;2024-02-21T01:24:03;26.17;;;6.10;;
83659;SDS011;73632;50.808;3.422;2024-02-21T01:26:28;28.85;;;6.00;;
83659;SDS011;73632;50.808;3.422;2024-02-21T01:28:54;32.92;;;6.35;;
83659;SDS011;73632;50.808;3.422;2024-02-21T01:31:19;22.85;;;5.50;;
83659;SDS011;73632;50.808;3.422;2024-02-21T01:33:45;28.25;;;6.63;;
83659;SDS011;73632;50.808;3.422;2024-02-21T01:36:10;26.00;;;6.28;;
83659;SDS011;73632;50.808;3.422;2024-02-21T01:38:36;19.65;;;5.95;;
83659;SDS011;73632;50.808;3.422;2024-02-21T01:41:01;28.60;;;5.75;;
83659;SDS011;73632;50.808;3.422;2024-02-21T01:43:27;27.42;;;5.88;;
83659;SDS011;73632;50.808;3.422;2024-02-21T01:45:53;32.70;;;7.13;;
83659;SDS011;73632;50.808;3.422;2024-02-21T01:48:21;25.75;;;6.50;;
83659;SDS011;73632;50.808;3.422;2024-02-21T01:50:47;22.90;;;5.57;;
83659;SDS011;73632;50.808;3.422;2024-02-21T01:53:48;27.15;;;6.10;;
83659;SDS011;73632;50.808;3.422;2024-02-21T01:56:09;26.42;;;6.45;;
83659;SDS011;73632;50.808;3.422;2024-02-21T01:58:36;23.45;;;6.47;;
83659;SDS011;73632;50.808;3.422;2024-02-21T02:01:03;25.63;;;5.90;;
83659;SDS011;73632;50.808;3.422;2024-02-21T02:03:29;24.33;;;6.68;;
83659;SDS011;73632;50.808;3.422;2024-02-21T02:05:55;29.55;;;6.55;;
83659;SDS011;73632;50.808;3.422;2024-02-21T02:08:20;23.50;;;5.63;;
83659;SDS011;73632;50.808;3.422;2024-02-21T02:10:49;25.35;;;6.35;;
83659;SDS011;73632;50.808;3.422;2024-02-21T02:13:15;23.40;;;6.13;;
83659;SDS011;73632;50.808;3.422;2024-02-21T02:15:41;26.73;;;6.45;;
83659;SDS011;73632;50.808;3.422;2024-02-21T02:18:07;26.05;;;6.82;;
83659;SDS011;73632;50.808;3.422;2024-02-21T02:20:33;23.90;;;6.40;;
83659;SDS011;73632;50.808;3.422;2024-02-21T02:23:00;21.80;;;6.05;;
83659;SDS011;73632;50.808;3.422;2024-02-21T02:25:31;26.60;;;6.22;;
83659;SDS011;73632;50.808;3.422;2024-02-21T02:27:57;27.67;;;6.53;;
83659;SDS011;73632;50.808;3.422;2024-02-21T02:30:22;23.13;;;5.60;;
83659;SDS011;73632;50.808;3.422;2024-02-21T02:32:48;25.65;;;6.57;;
83659;SDS011;73632;50.808;3.422;2024-02-21T02:35:13;21.48;;;5.47;;
83659;SDS011;73632;50.808;3.422;2024-02-21T02:37:39;20.98;;;5.10;;
83659;SDS011;73632;50.808;3.422;2024-02-21T02:40:05;27.75;;;6.22;;
83659;SDS011;73632;50.808;3.422;2024-02-21T02:42:31;25.45;;;6.80;;
83659;SDS011;73632;50.808;3.422;2024-02-21T02:44:57;20.92;;;5.18;;
83659;SDS011;73632;50.808;3.422;2024-02-21T02:47:22;18.85;;;5.80;;
83659;SDS011;73632;50.808;3.422;2024-02-21T02:49:48;21.38;;;6.63;;
83659;SDS011;73632;50.808;3.422;2024-02-21T02:52:16;25.00;;;6.40;;
83659;SDS011;73632;50.808;3.422;2024-02-21T02:54:42;25.75;;;6.03;;
83659;SDS011;73632;50.808;3.422;2024-02-21T02:57:08;24.17;;;6.25;;
83659;SDS011;73632;50.808;3.422;2024-02-21T02:59:34;26.90;;;7.10;;
83659;SDS011;73632;50.808;3.422;2024-02-21T03:01:59;21.75;;;6.43;;
83659;SDS011;73632;50.808;3.422;2024-02-21T03:04:24;25.65;;;6.47;;
83659;SDS011;73632;50.808;3.422;2024-02-21T03:06:50;21.20;;;5.43;;
83659;SDS011;73632;50.808;3.422;2024-02-21T03:09:15;19.50;;;6.57;;
83659;SDS011;73632;50.808;3.422;2024-02-21T03:11:42;19.73;;;6.63;;
83659;SDS011;73632;50.808;3.422;2024-02-21T03:14:09;14.80;;;5.22;;
83659;SDS011;73632;50.808;3.422;2024-02-21T03:16:35;18.45;;;6.50;;
83659;SDS011;73632;50.808;3.422;2024-02-21T03:19:00;20.15;;;6.63;;
83659;SDS011;73632;50.808;3.422;2024-02-21T03:21:25;20.38;;;6.63;;
83659;SDS011;73632;50.808;3.422;2024-02-21T03:23:51;29.90;;;7.50;;
83659;SDS011;73632;50.808;3.422;2024-02-21T03:26:16;21.27;;;6.90;;
83659;SDS011;73632;50.808;3.422;2024-02-21T03:28:42;19.23;;;6.80;;
83659;SDS011;73632;50.808;3.422;2024-02-21T03:31:13;28.48;;;7.30;;
83659;SDS011;73632;50.808;3.422;2024-02-21T03:33:39;21.58;;;7.22;;
83659;SDS011;73632;50.808;3.422;2024-02-21T03:36:06;24.75;;;7.32;;
83659;SDS011;73632;50.808;3.422;2024-02-21T03:38:31;24.80;;;7.18;;
83659;SDS011;73632;50.808;3.422;2024-02-21T03:40:57;21.45;;;6.90;;
83659;SDS011;73632;50.808;3.422;2024-02-21T03:43:22;25.58;;;6.88;;
83659;SDS011;73632;50.808;3.422;2024-02-21T03:45:47;22.20;;;7.07;;
83659;SDS011;73632;50.808;3.422;2024-02-21T03:48:13;19.65;;;7.30;;
83659;SDS011;73632;50.808;3.422;2024-02-21T03:50:38;20.17;;;7.30;;
83659;SDS011;73632;50.808;3.422;2024-02-21T03:53:04;27.98;;;7.25;;
83659;SDS011;73632;50.808;3.422;2024-02-21T03:55:29;21.23;;;7.25;;
83659;SDS011;73632;50.808;3.422;2024-02-21T03:57:54;18.55;;;6.78;;
83659;SDS011;73632;50.808;3.422;2024-02-21T04:00:20;23.35;;;7.10;;
83659;SDS011;73632;50.808;3.422;2024-02-21T04:02:45;21.33;;;6.63;;
83659;SDS011;73632;50.808;3.422;2024-02-21T04:05:11;21.38;;;7.63;;
83659;SDS011;73632;50.808;3.422;2024-02-21T04:07:37;24.00;;;7.90;;
83659;SDS011;73632;50.808;3.422;2024-02-21T04:10:03;27.30;;;8.27;;
83659;SDS011;73632;50.808;3.422;2024-02-21T04:12:29;21.02;;;6.95;;
83659;SDS011;73632;50.808;3.422;2024-02-21T04:14:54;26.35;;;7.72;;
83659;SDS011;73632;50.808;3.422;2024-02-21T04:17:20;19.70;;;6.63;;
83659;SDS011;73632;50.808;3.422;2024-02-21T04:19:45;28.13;;;7.93;;
83659;SDS011;73632;50.808;3.422;2024-02-21T04:22:10;28.15;;;8.30;;
83659;SDS011;73632;50.808;3.422;2024-02-21T04:24:36;17.27;;;6.95;;
83659;SDS011;73632;50.808;3.422;2024-02-21T04:27:01;21.52;;;7.35;;
83659;SDS011;73632;50.808;3.422;2024-02-21T04:29:27;24.08;;;7.18;;
83659;SDS011;73632;50.808;3.422;2024-02-21T04:31:53;33.33;;;8.90;;
83659;SDS011;73632;50.808;3.422;2024-02-21T04:34:19;20.08;;;7.90;;
83659;SDS011;73632;50.808;3.422;2024-02-21T04:36:44;20.10;;;7.40;;
83659;SDS011;73632;50.808;3.422;2024-02-21T04:39:09;22.52;;;7.45;;
83659;SDS011;73632;50.808;3.422;2024-02-21T04:41:36;31.95;;;8.25;;
83659;SDS011;73632;50.808;3.422;2024-02-21T04:44:02;18.50;;;7.97;;
83659;SDS011;73632;50.808;3.422;2024-02-21T04:46:29;26.23;;;8.18;;
83659;SDS011;73632;50.808;3.422;2024-02-21T04:48:54;23.88;;;8.63;;
83659;SDS011;73632;50.808;3.422;2024-02-21T04:51:20;20.23;;;7.68;;
83659;SDS011;73632;50.808;3.422;2024-02-21T04:53:46;27.17;;;9.18;;
83659;SDS011;73632;50.808;3.422;2024-02-21T04:56:11;22.60;;;7.97;;
83659;SDS011;73632;50.808;3.422;2024-02-21T04:58:37;24.92;;;8.45;;
83659;SDS011;73632;50.808;3.422;2024-02-21T05:01:04;21.60;;;8.02;;
83659;SDS011;73632;50.808;3.422;2024-02-21T05:03:29;28.33;;;9.05;;
83659;SDS011;73632;50.808;3.422;2024-02-21T05:05:55;29.02;;;7.95;;
83659;SDS011;73632;50.808;3.422;2024-02-21T05:08:20;25.45;;;8.93;;
83659;SDS011;73632;50.808;3.422;2024-02-21T05:10:46;23.90;;;7.85;;
83659;SDS011;73632;50.808;3.422;2024-02-21T05:13:11;24.75;;;8.13;;
83659;SDS011;73632;50.808;3.422;2024-02-21T05:15:36;25.55;;;8.40;;
83659;SDS011;73632;50.808;3.422;2024-02-21T05:18:02;22.63;;;7.63;;
83659;SDS011;73632;50.808;3.422;2024-02-21T05:20:27;23.67;;;7.55;;
83659;SDS011;73632;50.808;3.422;2024-02-21T05:22:53;22.83;;;8.15;;
83659;SDS011;73632;50.808;3.422;2024-02-21T05:25:18;25.67;;;8.00;;
83659;SDS011;73632;50.808;3.422;2024-02-21T05:27:44;17.77;;;7.60;;
83659;SDS011;73632;50.808;3.422;2024-02-21T05:30:11;22.10;;;7.90;;
83659;SDS011;73632;50.808;3.422;2024-02-21T05:32:37;21.17;;;7.85;;
83659;SDS011;73632;50.808;3.422;2024-02-21T05:35:02;29.30;;;9.35;;
83659;SDS011;73632;50.808;3.422;2024-02-21T05:37:28;22.13;;;8.55;;
83659;SDS011;73632;50.808;3.422;2024-02-21T05:39:53;24.73;;;8.98;;
83659;SDS011;73632;50.808;3.422;2024-02-21T05:42:19;19.90;;;8.82;;
83659;SDS011;73632;50.808;3.422;2024-02-21T05:44:44;23.63;;;8.27;;
83659;SDS011;73632;50.808;3.422;2024-02-21T05:47:09;24.90;;;8.55;;
83659;SDS011;73632;50.808;3.422;2024-02-21T05:49:37;20.33;;;8.48;;
83659;SDS011;73632;50.808;3.422;2024-02-21T05:52:02;17.48;;;8.50;;
83659;SDS011;73632;50.808;3.422;2024-02-21T05:54:28;21.30;;;7.85;;
83659;SDS011;73632;50.808;3.422;2024-02-21T05:56:53;18.90;;;8.43;;
83659;SDS011;73632;50.808;3.422;2024-02-21T05:59:19;22.30;;;8.68;;
83659;SDS011;73632;50.808;3.422;2024-02-21T06:01:44;21.23;;;8.27;;
83659;SDS011;73632;50.808;3.422;2024-02-21T06:04:09;21.20;;;8.48;;
83659;SDS011;73632;50.808;3.422;2024-02-21T06:06:38;15.68;;;8.00;;
83659;SDS011;73632;50.808;3.422;2024-02-21T06:09:03;21.85;;;8.98;;
83659;SDS011;73632;50.808;3.422;2024-02-21T06:11:28;21.55;;;7.97;;
83659;SDS011;73632;50.808;3.422;2024-02-21T06:13:54;18.15;;;7.72;;
83659;SDS011;73632;50.808;3.422;2024-02-21T06:16:20;25.58;;;8.07;;
83659;SDS011;73632;50.808;3.422;2024-02-21T06:18:46;20.35;;;8.18;;
83659;SDS011;73632;50.808;3.422;2024-02-21T06:21:11;20.77;;;9.10;;
83659;SDS011;73632;50.808;3.422;2024-02-21T06:23:37;18.27;;;8.57;;
83659;SDS011;73632;50.808;3.422;2024-02-21T06:26:03;22.30;;;8.55;;
83659;SDS011;73632;50.808;3.422;2024-02-21T06:28:28;16.38;;;8.02;;
83659;SDS011;73632;50.808;3.422;2024-02-21T06:30:53;29.38;;;9.48;;
83659;SDS011;73632;50.808;3.422;2024-02-21T06:33:19;21.10;;;9.02;;
83659;SDS011;73632;50.808;3.422;2024-02-21T06:35:49;19.30;;;8.57;;
83659;SDS011;73632;50.808;3.422;2024-02-21T06:38:17;20.65;;;8.25;;
83659;SDS011;73632;50.808;3.422;2024-02-21T06:40:43;21.45;;;9.45;;
83659;SDS011;73632;50.808;3.422;2024-02-21T06:43:14;21.05;;;8.88;;
83659;SDS011;73632;50.808;3.422;2024-02-21T06:45:39;28.58;;;9.45;;
83659;SDS011;73632;50.808;3.422;2024-02-21T06:48:04;19.83;;;10.60;;
83659;SDS011;73632;50.808;3.422;2024-02-21T06:50:30;21.45;;;9.82;;
83659;SDS011;73632;50.808;3.422;2024-02-21T06:52:55;23.73;;;11.70;;
83659;SDS011;73632;50.808;3.422;2024-02-21T06:55:21;22.67;;;10.48;;
83659;SDS011;73632;50.808;3.422;2024-02-21T06:57:46;27.25;;;10.63;;
83659;SDS011;73632;50.808;3.422;2024-02-21T07:00:13;23.17;;;10.00;;
83659;SDS011;73632;50.808;3.422;2024-02-21T07:02:39;23.95;;;11.18;;
83659;SDS011;73632;50.808;3.422;2024-02-21T07:05:04;25.58;;;10.35;;
83659;SDS011;73632;50.808;3.422;2024-02-21T07:07:30;24.42;;;11.30;;
83659;SDS011;73632;50.808;3.422;2024-02-21T07:09:55;23.60;;;10.88;;
83659;SDS011;73632;50.808;3.422;2024-02-21T07:12:21;31.17;;;10.88;;
83659;SDS011;73632;50.808;3.422;2024-02-21T07:14:46;20.23;;;9.95;;
83659;SDS011;73632;50.808;3.422;2024-02-21T07:17:11;24.27;;;10.35;;
83659;SDS011;73632;50.808;3.422;2024-02-21T07:19:37;16.67;;;9.93;;
83659;SDS011;73632;50.808;3.422;2024-02-21T07:22:02;17.85;;;9.65;;
83659;SDS011;73632;50.808;3.422;2024-02-21T07:24:28;19.92;;;10.27;;
83659;SDS011;73632;50.808;3.422;2024-02-21T07:26:53;25.15;;;9.73;;
83659;SDS011;73632;50.808;3.422;2024-02-21T07:29:19;19.05;;;9.05;;
83659;SDS011;73632;50.808;3.422;2024-02-21T07:31:44;23.88;;;9.82;;
83659;SDS011;73632;50.808;3.422;2024-02-21T07:34:10;17.40;;;8.38;;
83659;SDS011;73632;50.808;3.422;2024-02-21T07:36:36;20.35;;;9.80;;
83659;SDS011;73632;50.808;3.422;2024-02-21T07:39:04;17.88;;;9.05;;
83659;SDS011;73632;50.808;3.422;2024-02-21T07:41:30;21.60;;;8.80;;
83659;SDS011;73632;50.808;3.422;2024-02-21T07:43:56;20.67;;;9.38;;
83659;SDS011;73632;50.808;3.422;2024-02-21T07:46:21;19.83;;;9.20;;
83659;SDS011;73632;50.808;3.422;2024-02-21T07:48:47;23.65;;;9.27;;
83659;SDS011;73632;50.808;3.422;2024-02-21T07:51:13;22.35;;;9.60;;
83659;SDS011;73632;50.808;3.422;2024-02-21T07:53:38;16.65;;;9.40;;
83659;SDS011;73632;50.808;3.422;2024-02-21T07:56:09;22.98;;;9.25;;
83659;SDS011;73632;50.808;3.422;2024-02-21T07:58:35;17.60;;;9.77;;
83659;SDS011;73632;50.808;3.422;2024-02-21T08:01:00;14.82;;;8.68;;
83659;SDS011;73632;50.808;3.422;2024-02-21T08:03:26;22.45;;;10.60;;
83659;SDS011;73632;50.808;3.422;2024-02-21T08:05:51;21.02;;;10.00;;
83659;SDS011;73632;50.808;3.422;2024-02-21T08:08:17;19.83;;;8.70;;
83659;SDS011;73632;50.808;3.422;2024-02-21T08:10:45;23.40;;;10.07;;
83659;SDS011;73632;50.808;3.422;2024-02-21T08:13:10;22.90;;;10.05;;
83659;SDS011;73632;50.808;3.422;2024-02-21T08:15:36;20.42;;;9.60;;
83659;SDS011;73632;50.808;3.422;2024-02-21T08:18:04;28.17;;;8.85;;
83659;SDS011;73632;50.808;3.422;2024-02-21T08:20:29;22.25;;;9.65;;
83659;SDS011;73632;50.808;3.422;2024-02-21T08:22:54;18.08;;;8.73;;
83659;SDS011;73632;50.808;3.422;2024-02-21T08:25:20;24.20;;;9.98;;
83659;SDS011;73632;50.808;3.422;2024-02-21T08:27:45;20.52;;;8.95;;
83659;SDS011;73632;50.808;3.422;2024-02-21T08:30:11;19.10;;;8.90;;
83659;SDS011;73632;50.808;3.422;2024-02-21T08:32:37;16.40;;;8.70;;
83659;SDS011;73632;50.808;3.422;2024-02-21T08:35:03;22.23;;;8.43;;
83659;SDS011;73632;50.808;3.422;2024-02-21T08:37:30;27.83;;;8.30;;
83659;SDS011;73632;50.808;3.422;2024-02-21T08:39:55;22.15;;;8.02;;
83659;SDS011;73632;50.808;3.422;2024-02-21T08:42:21;16.73;;;8.90;;
83659;SDS011;73632;50.808;3.422;2024-02-21T08:44:46;22.13;;;8.77;;
83659;SDS011;73632;50.808;3.422;2024-02-21T08:47:12;18.95;;;7.97;;
83659;SDS011;73632;50.808;3.422;2024-02-21T08:49:37;23.65;;;8.25;;
83659;SDS011;73632;50.808;3.422;2024-02-21T08:52:03;19.40;;;7.95;;
83659;SDS011;73632;50.808;3.422;2024-02-21T08:54:29;18.83;;;8.38;;
83659;SDS011;73632;50.808;3.422;2024-02-21T08:56:54;18.15;;;7.72;;
83659;SDS011;73632;50.808;3.422;2024-02-21T08:59:20;13.98;;;7.25;;
83659;SDS011;73632;50.808;3.422;2024-02-21T09:01:46;18.10;;;7.32;;
83659;SDS011;73632;50.808;3.422;2024-02-21T09:04:12;27.75;;;7.88;;
83659;SDS011;73632;50.808;3.422;2024-02-21T09:06:37;18.05;;;7.60;;
83659;SDS011;73632;50.808;3.422;2024-02-21T09:09:07;14.77;;;6.43;;
83659;SDS011;73632;50.808;3.422;2024-02-21T09:11:33;22.05;;;7.18;;
83659;SDS011;73632;50.808;3.422;2024-02-21T09:13:59;18.42;;;7.53;;
83659;SDS011;73632;50.808;3.422;2024-02-21T09:16:25;17.58;;;6.88;;
83659;SDS011;73632;50.808;3.422;2024-02-21T09:18:50;21.70;;;6.18;;
83659;SDS011;73632;50.808;3.422;2024-02-21T09:21:17;15.18;;;7.15;;
83659;SDS011;73632;50.808;3.422;2024-02-21T09:23:42;14.73;;;6.15;;
83659;SDS011;73632;50.808;3.422;2024-02-21T09:26:07;12.02;;;5.88;;
83659;SDS011;73632;50.808;3.422;2024-02-21T09:28:35;12.30;;;6.78;;
83659;SDS011;73632;50.808;3.422;2024-02-21T09:31:00;13.45;;;6.15;;
83659;SDS011;73632;50.808;3.422;2024-02-21T09:33:27;17.33;;;6.05;;
83659;SDS011;73632;50.808;3.422;2024-02-21T09:35:52;16.20;;;5.82;;
83659;SDS011;73632;50.808;3.422;2024-02-21T09:38:18;18.25;;;6.00;;
83659;SDS011;73632;50.808;3.422;2024-02-21T09:40:43;16.45;;;5.80;;
83659;SDS011;73632;50.808;3.422;2024-02-21T09:43:09;11.68;;;5.20;;
83659;SDS011;73632;50.808;3.422;2024-02-21T09:45:34;13.95;;;5.07;;
83659;SDS011;73632;50.808;3.422;2024-02-21T09:50:32;12.57;;;5.82;;
83659;SDS011;73632;50.808;3.422;2024-02-21T09:53:00;14.00;;;5.55;;
83659;SDS011;73632;50.808;3.422;2024-02-21T09:55:27;12.52;;;5.35;;
83659;SDS011;73632;50.808;3.422;2024-02-21T09:57:54;13.98;;;6.05;;
83659;SDS011;73632;50.808;3.422;2024-02-21T10:00:22;14.35;;;6.28;;
83659;SDS011;73632;50.808;3.422;2024-02-21T10:02:48;11.77;;;5.90;;
83659;SDS011;73632;50.808;3.422;2024-02-21T10:05:15;16.15;;;5.75;;
83659;SDS011;73632;50.808;3.422;2024-02-21T10:07:41;11.05;;;5.55;;
83659;SDS011;73632;50.808;3.422;2024-02-21T10:10:07;18.35;;;5.90;;
83659;SDS011;73632;50.808;3.422;2024-02-21T10:12:33;10.93;;;5.63;;
83659;SDS011;73632;50.808;3.422;2024-02-21T10:17:32;14.30;;;5.57;;
83659;SDS011;73632;50.808;3.422;2024-02-21T10:20:10;12.30;;;5.38;;
83659;SDS011;73632;50.808;3.422;2024-02-21T10:22:37;18.77;;;6.75;;
83659;SDS011;73632;50.808;3.422;2024-02-21T10:25:10;10.13;;;4.88;;
83659;SDS011;73632;50.808;3.422;2024-02-21T10:27:37;10.02;;;5.00;;
83659;SDS011;73632;50.808;3.422;2024-02-21T10:30:04;11.68;;;5.88;;
83659;SDS011;73632;50.808;3.422;2024-02-21T10:32:30;12.82;;;4.75;;
83659;SDS011;73632;50.808;3.422;2024-02-21T10:35:03;14.85;;;5.40;;
83659;SDS011;73632;50.808;3.422;2024-02-21T10:37:31;9.73;;;4.57;;
83659;SDS011;73632;50.808;3.422;2024-02-21T10:39:57;10.30;;;5.25;;
83659;SDS011;73632;50.808;3.422;2024-02-21T10:42:22;13.27;;;5.30;;
83659;SDS011;73632;50.808;3.422;2024-02-21T10:44:53;16.95;;;5.65;;
83659;SDS011;73632;50.808;3.422;2024-02-21T10:47:25;9.13;;;4.50;;
83659;SDS011;73632;50.808;3.422;2024-02-21T10:49:57;13.50;;;4.90;;
83659;SDS011;73632;50.808;3.422;2024-02-21T10:54:56;16.92;;;5.18;;
83659;SDS011;73632;50.808;3.422;2024-02-21T10:57:28;16.17;;;5.53;;
83659;SDS011;73632;50.808;3.422;2024-02-21T10:59:56;9.95;;;4.68;;
83659;SDS011;73632;50.808;3.422;2024-02-21T11:02:24;8.93;;;5.07;;
83659;SDS011;73632;50.808;3.422;2024-02-21T11:04:50;8.75;;;4.47;;
83659;SDS011;73632;50.808;3.422;2024-02-21T11:07:18;13.30;;;5.30;;
83659;SDS011;73632;50.808;3.422;2024-02-21T11:09:53;11.13;;;5.00;;
83659;SDS011;73632;50.808;3.422;2024-02-21T11:12:22;13.35;;;4.57;;
83659;SDS011;73632;50.808;3.422;2024-02-21T11:14:48;10.73;;;4.35;;
83659;SDS011;73632;50.808;3.422;2024-02-21T11:17:17;9.38;;;4.70;;
83659;SDS011;73632;50.808;3.422;2024-02-21T11:19:44;11.93;;;4.57;;
83659;SDS011;73632;50.808;3.422;2024-02-21T11:22:16;12.77;;;4.88;;
83659;SDS011;73632;50.808;3.422;2024-02-21T11:24:42;12.10;;;5.13;;
83659;SDS011;73632;50.808;3.422;2024-02-21T11:27:09;8.13;;;4.05;;
83659;SDS011;73632;50.808;3.422;2024-02-21T11:29:54;9.07;;;4.60;;
83659;SDS011;73632;50.808;3.422;2024-02-21T11:32:22;9.40;;;4.75;;
83659;SDS011;73632;50.808;3.422;2024-02-21T11:37:26;12.50;;;6.03;;
83659;SDS011;73632;50.808;3.422;2024-02-21T11:39:53;13.55;;;5.13;;
83659;SDS011;73632;50.808;3.422;2024-02-21T11:42:18;14.35;;;5.15;;
83659;SDS011;73632;50.808;3.422;2024-02-21T11:44:45;11.10;;;5.10;;
83659;SDS011;73632;50.808;3.422;2024-02-21T11:47:10;9.07;;;5.05;;
83659;SDS011;73632;50.808;3.422;2024-02-21T11:49:36;10.80;;;5.13;;
83659;SDS011;73632;50.808;3.422;2024-02-21T11:52:06;9.65;;;4.57;;
83659;SDS011;73632;50.808;3.422;2024-02-21T11:54:32;10.63;;;5.32;;
83659;SDS011;73632;50.808;3.422;2024-02-21T11:56:58;9.23;;;5.57;;
83659;SDS011;73632;50.808;3.422;2024-02-21T11:59:24;9.13;;;4.78;;
83659;SDS011;73632;50.808;3.422;2024-02-21T12:01:49;9.77;;;5.10;;
83659;SDS011;73632;50.808;3.422;2024-02-21T12:04:17;12.48;;;4.95;;
83659;SDS011;73632;50.808;3.422;2024-02-21T12:06:44;15.95;;;5.38;;
83659;SDS011;73632;50.808;3.422;2024-02-21T12:09:13;9.07;;;4.38;;
83659;SDS011;73632;50.808;3.422;2024-02-21T12:11:40;10.30;;;4.75;;
83659;SDS011;73632;50.808;3.422;2024-02-21T12:14:05;9.70;;;4.85;;
83659;SDS011;73632;50.808;3.422;2024-02-21T12:16:31;9.48;;;4.65;;
83659;SDS011;73632;50.808;3.422;2024-02-21T12:18:58;11.05;;;3.83;;
83659;SDS011;73632;50.808;3.422;2024-02-21T12:21:29;23.70;;;4.38;;
83659;SDS011;73632;50.808;3.422;2024-02-21T12:23:57;10.20;;;4.28;;
83659;SDS011;73632;50.808;3.422;2024-02-21T12:26:36;9.90;;;4.43;;
83659;SDS011;73632;50.808;3.422;2024-02-21T12:29:02;10.40;;;4.03;;
83659;SDS011;73632;50.808;3.422;2024-02-21T12:31:27;8.80;;;4.03;;
83659;SDS011;73632;50.808;3.422;2024-02-21T12:33:53;8.45;;;4.03;;
83659;SDS011;73632;50.808;3.422;2024-02-21T12:36:18;6.80;;;4.30;;
83659;SDS011;73632;50.808;3.422;2024-02-21T12:38:44;9.68;;;3.90;;
83659;SDS011;73632;50.808;3.422;2024-02-21T12:41:11;8.27;;;4.25;;
83659;SDS011;73632;50.808;3.422;2024-02-21T12:43:37;8.38;;;4.30;;
83659;SDS011;73632;50.808;3.422;2024-02-21T12:46:03;11.60;;;4.57;;
83659;SDS011;73632;50.808;3.422;2024-02-21T12:48:28;7.28;;;3.92;;
83659;SDS011;73632;50.808;3.422;2024-02-21T12:50:54;13.32;;;4.07;;
83659;SDS011;73632;50.808;3.422;2024-02-21T12:53:19;10.05;;;4.15;;
83659;SDS011;73632;50.808;3.422;2024-02-21T12:55:49;14.38;;;4.65;;
83659;SDS011;73632;50.808;3.422;2024-02-21T12:58:15;9.05;;;4.18;;
83659;SDS011;73632;50.808;3.422;2024-02-21T13:00:41;10.95;;;4.80;;
83659;SDS011;73632;50.808;3.422;2024-02-21T13:03:07;6.97;;;4.28;;
83659;SDS011;73632;50.808;3.422;2024-02-21T13:05:34;14.20;;;5.10;;
83659;SDS011;73632;50.808;3.422;2024-02-21T13:08:00;12.27;;;4.18;;
83659;SDS011;73632;50.808;3.422;2024-02-21T13:10:26;8.98;;;4.20;;
83659;SDS011;73632;50.808;3.422;2024-02-21T13:12:52;11.02;;;4.85;;
83659;SDS011;73632;50.808;3.422;2024-02-21T13:15:17;11.82;;;5.60;;
83659;SDS011;73632;50.808;3.422;2024-02-21T13:17:45;17.13;;;5.40;;
83659;SDS011;73632;50.808;3.422;2024-02-21T13:20:11;13.85;;;5.18;;
83659;SDS011;73632;50.808;3.422;2024-02-21T13:22:37;14.18;;;6.43;;
83659;SDS011;73632;50.808;3.422;2024-02-21T13:25:03;14.75;;;5.40;;
83659;SDS011;73632;50.808;3.422;2024-02-21T13:27:32;12.60;;;5.78;;
83659;SDS011;73632;50.808;3.422;2024-02-21T13:29:57;8.73;;;5.38;;
83659;SDS011;73632;50.808;3.422;2024-02-21T13:32:23;12.95;;;5.68;;
83659;SDS011;73632;50.808;3.422;2024-02-21T13:34:49;16.75;;;5.90;;
83659;SDS011;73632;50.808;3.422;2024-02-21T13:37:17;9.70;;;4.97;;
83659;SDS011;73632;50.808;3.422;2024-02-21T13:39:43;12.18;;;5.93;;
83659;SDS011;73632;50.808;3.422;2024-02-21T13:42:08;11.00;;;5.53;;
83659;SDS011;73632;50.808;3.422;2024-02-21T13:44:34;15.52;;;6.18;;
83659;SDS011;73632;50.808;3.422;2024-02-21T13:46:59;12.65;;;6.22;;
83659;SDS011;73632;50.808;3.422;2024-02-21T13:49:25;10.80;;;6.07;;
83659;SDS011;73632;50.808;3.422;2024-02-21T13:51:51;12.52;;;5.95;;
83659;SDS011;73632;50.808;3.422;2024-02-21T13:54:16;17.27;;;5.65;;
83659;SDS011;73632;50.808;3.422;2024-02-21T13:56:44;9.30;;;5.03;;
83659;SDS011;73632;50.808;3.422;2024-02-21T13:59:11;12.43;;;6.05;;
83659;SDS011;73632;50.808;3.422;2024-02-21T14:01:38;18.02;;;6.05;;
83659;SDS011;73632;50.808;3.422;2024-02-21T14:04:04;13.13;;;6.03;;
83659;SDS011;73632;50.808;3.422;2024-02-21T14:06:29;15.98;;;6.20;;
83659;SDS011;73632;50.808;3.422;2024-02-21T14:08:54;15.90;;;6.38;;
83659;SDS011;73632;50.808;3.422;2024-02-21T14:11:20;13.30;;;6.45;;
83659;SDS011;73632;50.808;3.422;2024-02-21T14:13:45;13.73;;;6.25;;
83659;SDS011;73632;50.808;3.422;2024-02-21T14:16:11;11.60;;;5.55;;
83659;SDS011;73632;50.808;3.422;2024-02-21T14:18:42;11.35;;;5.03;;
83659;SDS011;73632;50.808;3.422;2024-02-21T14:21:08;13.02;;;6.15;;
83659;SDS011;73632;50.808;3.422;2024-02-21T14:23:37;11.02;;;5.72;;
83659;SDS011;73632;50.808;3.422;2024-02-21T14:26:03;16.23;;;6.10;;
83659;SDS011;73632;50.808;3.422;2024-02-21T14:28:29;22.23;;;6.47;;
83659;SDS011;73632;50.808;3.422;2024-02-21T14:30:55;13.15;;;6.35;;
83659;SDS011;73632;50.808;3.422;2024-02-21T14:33:31;19.23;;;6.82;;
83659;SDS011;73632;50.808;3.422;2024-02-21T14:35:56;16.05;;;7.05;;
83659;SDS011;73632;50.808;3.422;2024-02-21T14:38:22;19.83;;;6.78;;
83659;SDS011;73632;50.808;3.422;2024-02-21T14:40:48;23.02;;;7.30;;